Time;durP1;ratioP1;P1;durP2;ratioP2;P2;SDS_P1;SDS_P2;PMS_P1;PMS_P2;Temp;Humidity;BMP_temperature;BMP_pressure;BME280_temperature;BME280_humidity;BME280_pressure;Samples;Min_cycle;Max_cycle;Signal;HPM_P1;HPM_P2
2023/04/26 00:00:32;;;;;;;49.28;22.05;;;;;;;22.86;59.45;98331.59;4814768;29;20115;-69
2023/04/26 00:03:03;;;;;;;46.80;23.02;;;;;;;22.86;59.86;98342.38;4822022;29;20457;-70
2023/04/26 00:05:33;;;;;;;44.00;21.92;;;;;;;22.87;59.64;98343.19;4833891;29;20081;-69
2023/04/26 00:08:03;;;;;;;38.45;22.83;;;;;;;22.82;59.62;98339.44;4833835;29;20053;-65
2023/04/26 00:10:35;;;;;;;47.75;22.05;;;;;;;22.79;58.84;98341.91;4835679;29;20072;-68
2023/04/26 00:14:03;;;;;;;54.72;24.10;;;;;;;22.91;55.86;98344.25;4816512;29;20061;-70
2023/04/26 00:17:30;;;;;;;50.00;22.13;;;;;;;22.96;56.61;98344.22;4832370;29;20052;-69
2023/04/26 00:20:58;;;;;;;54.70;22.20;;;;;;;22.90;55.97;98351.53;4815914;29;20061;-69
2023/04/26 00:24:25;;;;;;;48.95;23.33;;;;;;;23.03;56.58;98353.59;4835288;29;20522;-69
2023/04/26 00:27:52;;;;;;;48.28;22.13;;;;;;;23.02;56.20;98365.50;4834099;29;20117;-71
2023/04/26 00:31:20;;;;;;;48.85;22.27;;;;;;;22.95;56.62;98364.22;4829989;29;20046;-70
2023/04/26 00:34:47;;;;;;;62.13;21.85;;;;;;;22.94;55.49;98366.09;4835300;29;20061;-71
2023/04/26 00:38:14;;;;;;;42.22;20.20;;;;;;;22.98;56.23;98371.75;4824654;29;20133;-70
2023/04/26 00:41:42;;;;;;;47.90;21.77;;;;;;;22.94;55.76;98376.09;4834470;29;20052;-70
2023/04/26 00:45:09;;;;;;;45.55;22.67;;;;;;;22.80;57.88;98379.41;4818033;29;20122;-68
2023/04/26 00:48:37;;;;;;;53.97;22.02;;;;;;;22.91;55.25;98382.88;4821178;29;20094;-69
2023/04/26 00:52:05;;;;;;;41.08;19.88;;;;;;;22.99;54.77;98384.16;4823563;29;20068;-70
2023/04/26 00:55:33;;;;;;;43.50;19.27;;;;;;;23.10;54.83;98391.13;4827048;29;20053;-71
2023/04/26 00:59:02;;;;;;;38.88;19.30;;;;;;;23.24;53.87;98390.19;4820954;29;20101;-69
2023/04/26 01:07:34;;;;;;;42.72;20.17;;;;;;;23.10;53.64;98412.75;4831252;29;20053;-72
2023/04/26 01:10:05;;;;;;;49.53;19.80;;;;;;;23.22;53.94;98407.78;4818147;29;20102;-71
2023/04/26 01:12:35;;;;;;;43.38;19.25;;;;;;;23.22;55.59;98419.41;4817872;29;20058;-70
2023/04/26 01:15:05;;;;;;;40.25;18.75;;;;;;;23.27;53.75;98418.56;4834372;29;20141;-71
2023/04/26 01:17:36;;;;;;;30.33;17.15;;;;;;;23.43;55.84;98420.03;4810372;29;20383;-67
2023/04/26 01:20:09;;;;;;;43.80;19.75;;;;;;;23.53;56.72;98417.31;4818913;29;20054;-69
2023/04/26 01:22:38;;;;;;;37.40;19.08;;;;;;;23.60;57.05;98417.78;4818673;29;20122;-68
2023/04/26 01:25:11;;;;;;;39.33;20.10;;;;;;;23.66;57.09;98423.94;4814413;29;20106;-68
2023/04/26 01:27:41;;;;;;;45.10;20.33;;;;;;;23.71;57.44;98430.13;4819045;29;20054;-67
2023/04/26 01:30:11;;;;;;;40.55;20.40;;;;;;;23.76;57.57;98434.69;4835638;29;20152;-67
2023/04/26 01:32:40;;;;;;;37.42;19.10;;;;;;;23.81;57.00;98431.13;4819821;29;20061;-67
2023/04/26 01:35:10;;;;;;;39.53;19.10;;;;;;;23.83;56.79;98424.31;4819221;29;20061;-66
2023/04/26 01:37:39;;;;;;;42.28;18.27;;;;;;;23.90;56.73;98432.13;4814428;29;20047;-68
2023/04/26 01:40:09;;;;;;;37.03;18.85;;;;;;;23.96;57.43;98436.38;4809122;29;20165;-68
2023/04/26 01:42:38;;;;;;;38.90;18.98;;;;;;;24.01;57.31;98430.91;4819901;29;20432;-69
2023/04/26 01:45:08;;;;;;;39.38;18.77;;;;;;;24.04;56.94;98428.44;4818683;29;20045;-67
2023/04/26 01:48:09;;;;;;;35.97;19.30;;;;;;;24.14;56.84;98433.75;4827315;29;20121;-68
2023/04/26 01:51:07;;;;;;;46.42;20.25;;;;;;;24.21;55.51;98441.53;4816713;29;20038;-69
2023/04/26 01:53:36;;;;;;;44.50;20.15;;;;;;;24.26;53.89;98441.50;4819655;29;20054;-66
2023/04/26 01:56:06;;;;;;;41.42;20.52;;;;;;;24.37;54.52;98450.31;4818731;29;20070;-70
2023/04/26 01:58:37;;;;;;;44.13;20.52;;;;;;;24.47;54.84;98458.34;4835515;29;20058;-68
2023/04/26 02:01:08;;;;;;;43.55;19.98;;;;;;;24.52;55.50;98459.06;4818492;29;20140;-69
2023/04/26 02:03:38;;;;;;;44.97;22.17;;;;;;;24.57;54.87;98448.19;4834689;29;20054;-67
2023/04/26 02:06:08;;;;;;;41.28;22.55;;;;;;;24.71;54.34;98461.81;4829851;29;20059;-65
2023/04/26 02:08:37;;;;;;;45.55;20.80;;;;;;;24.80;54.34;98461.97;4816694;29;20061;-67
2023/04/26 02:11:06;;;;;;;40.80;21.40;;;;;;;24.90;54.48;98462.69;4816266;29;20050;-68
2023/04/26 02:13:36;;;;;;;44.25;21.05;;;;;;;25.04;53.45;98463.59;4824546;29;20043;-68
2023/04/26 02:16:06;;;;;;;50.58;22.58;;;;;;;25.29;54.04;98467.84;4814070;29;20058;-67
2023/04/26 02:18:35;;;;;;;38.45;20.15;;;;;;;25.77;53.16;98468.47;4801688;29;20575;-67
2023/04/26 02:21:08;;;;;;;44.47;21.52;;;;;;;26.34;50.36;98472.63;4801264;29;20145;-67
2023/04/26 02:23:37;;;;;;;40.35;19.80;;;;;;;26.73;50.17;98469.41;4815153;29;20074;-69
2023/04/26 02:26:09;;;;;;;54.05;20.90;;;;;;;27.00;47.97;98468.59;4815989;29;20117;-68
2023/04/26 02:28:38;;;;;;;43.20;19.58;;;;;;;27.20;46.03;98470.06;4815677;29;20146;-66
2023/04/26 02:31:08;;;;;;;41.92;19.20;;;;;;;27.56;45.14;98473.63;4820151;29;20050;-69
2023/04/26 02:33:37;;;;;;;45.90;18.73;;;;;;;27.91;44.32;98469.22;4827235;29;20149;-68
2023/04/26 02:36:07;;;;;;;34.50;18.48;;;;;;;28.33;42.86;98478.75;4816147;29;20062;-66
2023/04/26 02:38:37;;;;;;;43.58;18.92;;;;;;;28.59;40.45;98481.56;4817211;29;20054;-67
2023/04/26 02:41:06;;;;;;;47.42;19.05;;;;;;;28.75;39.67;98479.25;4829985;29;20065;-69
2023/04/26 02:43:35;;;;;;;35.58;18.70;;;;;;;28.69;41.16;98485.94;4829004;29;20197;-69
2023/04/26 02:46:08;;;;;;;47.05;20.67;;;;;;;28.34;40.66;98493.16;4815562;29;20054;-65
2023/04/26 02:48:37;;;;;;;43.35;21.95;;;;;;;28.36;39.89;98494.47;4830872;29;20131;-67
2023/04/26 02:51:07;;;;;;;37.95;21.40;;;;;;;28.62;40.80;98485.59;4814687;29;20050;-68
2023/04/26 02:53:36;;;;;;;50.65;21.70;;;;;;;28.48;42.17;98493.88;4815359;29;20054;-67
2023/04/26 02:56:05;;;;;;;57.75;24.27;;;;;;;28.17;41.77;98485.72;4820315;29;20145;-66
2023/04/26 02:58:35;;;;;;;46.25;23.23;;;;;;;27.97;42.88;98491.69;4815794;29;20058;-67
2023/04/26 03:01:05;;;;;;;51.63;23.98;;;;;;;27.73;41.22;98500.16;4799641;29;20055;-65
2023/04/26 03:03:35;;;;;;;53.67;25.90;;;;;;;27.50;42.78;98495.78;4794418;29;20057;-66
2023/04/26 03:06:06;;;;;;;47.53;24.85;;;;;;;27.40;42.50;98499.53;4809371;29;20129;-67
2023/04/26 03:08:35;;;;;;;51.58;25.17;;;;;;;27.37;43.76;98507.50;4796529;29;20104;-68
2023/04/26 03:11:05;;;;;;;52.85;23.40;;;;;;;27.27;43.96;98512.06;4778740;29;20051;-68
2023/04/26 03:13:36;;;;;;;54.58;23.40;;;;;;;27.30;44.64;98516.09;4803412;29;20069;-68
2023/04/26 03:16:06;;;;;;;49.13;24.42;;;;;;;27.21;43.28;98515.19;4795599;29;20157;-69
2023/04/26 03:18:36;;;;;;;41.97;22.67;;;;;;;27.29;41.77;98528.06;4795860;29;20043;-66
2023/04/26 03:21:08;;;;;;;;;;;;;;;27.43;40.77;98528.84;4793087;29;20052;-69
2023/04/26 03:23:38;;;;;;;54.95;22.35;;;;;;;27.43;40.69;98522.59;4800064;29;20431;-67
2023/04/26 03:26:07;;;;;;;53.50;22.85;;;;;;;27.43;39.66;98526.13;4795337;29;20091;-70
2023/04/26 03:28:37;;;;;;;47.13;21.98;;;;;;;27.72;41.10;98522.22;4796380;29;20057;-68
2023/04/26 03:31:07;;;;;;;42.67;21.95;;;;;;;27.87;40.05;98519.16;4810173;29;20054;-66
2023/04/26 03:33:36;;;;;;;45.80;23.02;;;;;;;28.01;37.77;98526.13;4795299;29;20142;-65
2023/04/26 03:36:06;;;;;;;48.70;23.15;;;;;;;28.19;39.29;98520.84;4806663;29;20066;-66
2023/04/26 03:38:35;;;;;;;47.05;22.02;;;;;;;28.35;39.20;98527.47;4812210;29;20065;-64
2023/04/26 03:41:05;;;;;;;46.15;21.35;;;;;;;28.42;39.94;98531.34;4796127;29;20173;-66
2023/04/26 03:43:34;;;;;;;52.60;21.83;;;;;;;28.29;40.65;98529.53;4795442;29;20162;-66
2023/04/26 03:46:04;;;;;;;39.97;18.75;;;;;;;28.27;40.40;98528.25;4795922;29;20050;-65
2023/04/26 03:48:33;;;;;;;42.03;19.70;;;;;;;28.26;41.31;98527.44;4775368;29;20119;-65
2023/04/26 03:51:03;;;;;;;46.00;18.45;;;;;;;28.33;38.66;98532.41;4795918;29;20058;-65
2023/04/26 03:53:33;;;;;;;41.80;17.88;;;;;;;28.38;39.43;98533.09;4796347;29;20054;-67
2023/04/26 03:56:02;;;;;;;35.65;17.10;;;;;;;28.42;38.98;98536.81;4798952;29;20080;-67
2023/04/26 03:58:32;;;;;;;35.33;16.73;;;;;;;28.47;40.91;98530.41;4793241;29;20587;-66
2023/04/26 04:01:03;;;;;;;39.22;16.35;;;;;;;28.70;38.21;98533.88;4797995;29;20054;-65
2023/04/26 04:03:33;;;;;;;40.88;16.77;;;;;;;28.85;38.53;98536.22;4796687;29;20119;-66
2023/04/26 04:06:08;;;;;;;34.85;16.15;;;;;;;28.82;38.14;98534.13;4805456;29;20055;-64
2023/04/26 04:08:38;;;;;;;35.35;15.85;;;;;;;28.90;36.13;98536.88;4797669;29;20539;-63
2023/04/26 04:11:08;;;;;;;33.38;15.50;;;;;;;28.93;39.47;98546.34;4795698;29;20667;-64
2023/04/26 04:13:38;;;;;;;39.30;16.38;;;;;;;28.87;40.13;98544.88;4795128;29;20727;-63
2023/04/26 04:16:09;;;;;;;36.50;15.30;;;;;;;28.96;38.44;98540.25;4794282;29;20479;-64
2023/04/26 04:18:38;;;;;;;36.92;14.95;;;;;;;28.98;39.58;98540.75;4797104;29;20054;-64
2023/04/26 04:21:08;;;;;;;26.60;14.65;;;;;;;28.95;39.43;98546.81;4795269;29;20654;-66
2023/04/26 04:23:38;;;;;;;25.83;13.25;;;;;;;29.01;39.00;98546.38;4795876;29;20055;-64
2023/04/26 04:26:11;;;;;;;25.75;12.52;;;;;;;29.24;37.81;98546.28;4802713;29;20075;-66
2023/04/26 04:28:41;;;;;;;30.85;11.90;;;;;;;29.29;36.52;98544.25;4791931;29;20051;-63
2023/04/26 04:31:11;;;;;;;25.40;12.05;;;;;;;29.55;36.32;98547.00;4793501;29;20178;-63
2023/04/26 04:33:41;;;;;;;27.13;12.10;;;;;;;29.50;36.75;98551.78;4794340;29;20058;-63
2023/04/26 04:36:15;;;;;;;29.20;12.90;;;;;;;29.56;37.89;98548.59;4794264;29;21138;-65
2023/04/26 04:38:46;;;;;;;30.05;13.05;;;;;;;30.04;32.27;98542.19;4795212;29;20138;-62
2023/04/26 04:41:22;;;;;;;36.72;11.82;;;;;;;30.47;34.39;98548.38;4792228;29;20058;-65
2023/04/26 04:43:52;;;;;;;26.58;10.90;;;;;;;30.51;36.49;98546.59;4791275;29;20111;-67
2023/04/26 04:46:24;;;;;;;29.42;11.32;;;;;;;30.56;34.13;98542.88;4789974;29;20054;-65
2023/04/26 04:48:54;;;;;;;19.17;11.48;;;;;;;30.61;36.58;98548.19;4792471;29;20051;-65
2023/04/26 04:51:26;;;;;;;28.23;12.13;;;;;;;30.59;37.59;98543.03;4792999;29;20472;-66
2023/04/26 04:53:57;;;;;;;22.50;11.60;;;;;;;30.69;35.92;98541.88;4811664;29;20046;-65
2023/04/26 04:56:27;;;;;;;36.00;12.02;;;;;;;30.85;33.68;98545.66;4783013;29;20077;-65
2023/04/26 04:58:58;;;;;;;31.70;11.32;;;;;;;30.86;34.77;98532.78;4791795;29;20047;-62
2023/04/26 05:01:28;;;;;;;35.60;11.18;;;;;;;31.02;32.94;98540.16;4797822;29;20054;-63
2023/04/26 05:04:00;;;;;;;25.65;10.38;;;;;;;31.30;31.57;98537.69;4784574;29;20055;-62
2023/04/26 05:06:33;;;;;;;22.52;10.10;;;;;;;31.32;30.22;98540.13;4803699;29;20088;-63
2023/04/26 05:09:04;;;;;;;29.50;10.05;;;;;;;31.57;31.41;98537.22;4799064;29;20051;-64
2023/04/26 05:11:35;;;;;;;23.40;10.20;;;;;;;31.42;33.40;98532.31;4798406;29;20150;-62
2023/04/26 05:14:12;;;;;;;21.45;9.02;;;;;;;31.32;33.74;98529.97;4795587;29;20054;-61
2023/04/26 05:16:43;;;;;;;36.70;10.40;;;;;;;32.29;27.10;98524.16;4809858;29;20051;-63
2023/04/26 05:19:12;;;;;;;28.13;11.18;;;;;;;32.54;26.29;98525.81;4791249;29;20058;-60
2023/04/26 05:21:42;;;;;;;30.20;11.35;;;;;;;32.92;25.57;98526.34;4796498;29;20142;-63
2023/04/26 05:24:11;;;;;;;21.45;11.10;;;;;;;32.96;30.94;98520.97;4793326;29;20055;-64
2023/04/26 05:26:41;;;;;;;29.90;11.07;;;;;;;33.10;24.09;98528.84;4798555;29;20142;-64
2023/04/26 05:29:31;;;;;;;22.95;9.98;;;;;;;33.19;26.48;98527.59;4793851;29;20057;-62
2023/04/26 05:32:21;;;;;;;29.37;10.80;;;;;;;32.95;29.54;98516.59;4793557;29;20054;-60
2023/04/26 05:35:14;;;;;;;21.65;10.68;;;;;;;33.16;24.75;98511.81;4781135;29;20291;-69
2023/04/26 05:37:44;;;;;;;21.70;10.02;;;;;;;33.28;31.20;98513.75;4806525;29;20374;-65
2023/04/26 05:40:14;;;;;;;21.98;9.50;;;;;;;32.97;28.11;98508.84;4789357;29;20423;-67
2023/04/26 05:42:44;;;;;;;19.95;9.35;;;;;;;32.83;28.47;98513.88;4794623;29;20050;-67
2023/04/26 05:45:14;;;;;;;21.15;9.48;;;;;;;32.68;29.66;98509.84;4797045;29;20047;-66
2023/04/26 05:47:46;;;;;;;25.08;10.02;;;;;;;32.64;28.55;98505.41;4797893;29;20078;-68
2023/04/26 05:50:16;;;;;;;22.47;9.57;;;;;;;32.33;30.16;98509.44;4794994;29;20062;-69
2023/04/26 05:52:45;;;;;;;25.58;9.90;;;;;;;32.34;31.57;98510.25;4796481;29;20058;-65
2023/04/26 05:55:15;;;;;;;24.52;7.60;;;;;;;32.49;25.85;98501.34;4795954;29;20058;-66
2023/04/26 05:57:44;;;;;;;21.27;8.00;;;;;;;32.50;29.28;98511.19;4796642;29;20129;-66
2023/04/26 06:00:15;;;;;;;23.08;8.00;;;;;;;32.29;31.14;98511.28;4800897;29;20050;-65
2023/04/26 06:02:47;;;;;;;16.85;7.10;;;;;;;32.61;25.83;98506.06;4796550;29;20604;-65
2023/04/26 06:05:18;;;;;;;26.65;9.02;;;;;;;32.70;28.09;98515.81;4792530;29;20051;-65
2023/04/26 06:07:48;;;;;;;26.20;9.07;;;;;;;32.91;30.99;98508.28;4796419;29;20046;-72
2023/04/26 06:10:18;;;;;;;18.02;8.68;;;;;;;32.76;32.38;98502.66;4816155;29;20059;-67
2023/04/26 06:12:47;;;;;;;18.58;8.05;;;;;;;32.97;28.41;98503.34;4803683;29;20074;-72
2023/04/26 06:15:18;;;;;;;23.65;8.95;;;;;;;33.33;26.28;98499.75;4826243;29;20423;-74
2023/04/26 06:17:48;;;;;;;19.63;8.25;;;;;;;33.13;30.08;98500.69;4807130;29;20059;-73
2023/04/26 06:20:17;;;;;;;21.30;8.48;;;;;;;33.33;27.09;98494.25;4810712;29;20476;-74
2023/04/26 06:22:49;;;;;;;24.98;8.45;;;;;;;33.27;28.02;98496.47;4809456;29;20065;-74
2023/04/26 06:25:19;;;;;;;20.42;7.40;;;;;;;33.18;28.03;98484.81;4810373;29;20051;-72
2023/04/26 06:27:49;;;;;;;25.98;7.82;;;;;;;32.88;31.08;98478.75;4809013;29;20166;-64
2023/04/26 06:30:18;;;;;;;30.65;8.23;;;;;;;32.73;29.67;98487.69;4810281;29;20043;-71
2023/04/26 06:32:48;;;;;;;20.25;7.32;;;;;;;33.11;24.03;98475.53;4806821;29;20042;-70
2023/04/26 06:35:18;;;;;;;30.92;8.10;;;;;;;33.14;23.15;98478.44;4807259;29;20046;-63
2023/04/26 06:37:47;;;;;;;17.88;7.40;;;;;;;33.26;28.32;98472.09;4810430;29;20061;-64
2023/04/26 06:40:17;;;;;;;20.15;7.43;;;;;;;33.27;25.79;98471.75;4821413;29;20050;-68
2023/04/26 06:42:47;;;;;;;39.53;8.27;;;;;;;33.37;23.06;98473.22;4832480;29;20058;-69
2023/04/26 06:45:17;;;;;;;17.63;7.47;;;;;;;33.57;24.57;98476.91;4808285;29;20050;-68
2023/04/26 06:47:47;;;;;;;21.65;7.30;;;;;;;33.53;29.06;98463.09;4805424;29;20434;-66
2023/04/26 06:50:17;;;;;;;17.55;7.75;;;;;;;33.41;32.46;98468.63;4812524;29;20070;-64
2023/04/26 06:52:50;;;;;;;18.77;6.95;;;;;;;33.21;26.44;98455.88;4799018;29;20058;-64
2023/04/26 06:55:21;;;;;;;16.98;7.35;;;;;;;33.20;30.70;98452.31;4808653;29;20050;-65
2023/04/26 06:57:51;;;;;;;18.65;6.97;;;;;;;33.04;30.88;98442.38;4804029;29;20054;-67
2023/04/26 07:00:22;;;;;;;23.88;7.82;;;;;;;33.18;24.88;98442.84;4807763;29;20142;-63
2023/04/26 07:02:51;;;;;;;17.73;7.00;;;;;;;32.93;27.24;98445.59;4809113;29;20043;-68
2023/04/26 07:05:21;;;;;;;16.05;7.05;;;;;;;32.75;24.96;98437.97;4791780;29;20061;-67
2023/04/26 07:07:51;;;;;;;13.95;6.90;;;;;;;33.24;25.49;98435.94;4818924;29;20573;-66
2023/04/26 07:10:21;;;;;;;29.42;7.30;;;;;;;33.11;27.47;98429.66;4823208;29;20074;-68
2023/04/26 07:12:51;;;;;;;24.30;7.20;;;;;;;33.09;27.29;98428.41;4819987;29;20054;-68
2023/04/26 07:15:21;;;;;;;23.50;7.38;;;;;;;33.35;25.14;98423.34;4821301;29;20050;-63
2023/04/26 07:17:50;;;;;;;20.40;7.93;;;;;;;33.52;24.27;98424.97;4830870;29;20045;-66
2023/04/26 07:20:21;;;;;;;17.27;7.20;;;;;;;33.27;28.65;98429.78;4806240;29;20046;-68
2023/04/26 07:22:51;;;;;;;19.45;7.63;;;;;;;33.25;29.95;98421.06;4822027;29;20084;-70
2023/04/26 07:25:20;;;;;;;15.23;7.03;;;;;;;33.19;31.46;98419.75;4803781;29;20050;-71
2023/04/26 07:27:50;;;;;;;14.70;6.72;;;;;;;32.44;28.61;98414.63;4824159;29;20092;-67
2023/04/26 07:30:21;;;;;;;13.65;7.07;;;;;;;32.43;29.34;98412.25;4825522;29;20592;-65
2023/04/26 07:32:51;;;;;;;17.48;7.15;;;;;;;32.62;30.40;98404.25;4816022;29;20112;-67
2023/04/26 07:35:21;;;;;;;20.05;8.43;;;;;;;32.89;25.40;98398.03;4822455;29;20049;-66
2023/04/26 07:37:52;;;;;;;20.98;7.72;;;;;;;32.86;29.73;98401.50;4809690;29;20133;-66
2023/04/26 07:40:23;;;;;;;20.83;7.15;;;;;;;32.92;28.75;98396.56;4825517;29;20058;-61
2023/04/26 07:42:53;;;;;;;22.58;8.65;;;;;;;32.91;29.36;98395.75;4794967;29;20043;-68
2023/04/26 07:45:32;;;;;;;21.83;8.25;;;;;;;32.97;30.15;98388.88;4839170;29;20502;-65
2023/04/26 07:48:02;;;;;;;27.80;8.35;;;;;;;32.64;29.65;98382.78;4829881;29;20049;-69
2023/04/26 07:50:32;;;;;;;15.73;7.32;;;;;;;32.66;28.51;98391.47;4826261;29;20070;-64
2023/04/26 07:53:02;;;;;;;15.45;8.23;;;;;;;32.62;30.27;98387.78;4828436;29;20061;-65
2023/04/26 07:55:31;;;;;;;17.98;7.63;;;;;;;32.54;32.67;98377.72;4831859;29;20050;-63
2023/04/26 07:58:00;;;;;;;19.40;7.57;;;;;;;32.21;32.50;98363.34;4839896;29;20053;-63
2023/04/26 08:00:31;;;;;;;17.33;7.07;;;;;;;31.93;33.08;98360.44;4839966;29;20046;-63
2023/04/26 08:03:00;;;;;;;16.45;7.05;;;;;;;32.12;30.19;98358.00;4828074;29;20057;-61
2023/04/26 08:05:30;;;;;;;15.73;6.82;;;;;;;32.12;33.69;98357.19;4820832;29;20590;-64
2023/04/26 08:08:00;;;;;;;20.83;7.43;;;;;;;31.93;34.65;98355.78;4801979;29;20058;-62
2023/04/26 08:10:30;;;;;;;16.13;7.50;;;;;;;31.71;35.36;98344.44;4812200;29;20047;-64
2023/04/26 08:13:02;;;;;;;22.25;7.80;;;;;;;31.55;36.19;98339.63;4808140;29;20493;-64
2023/04/26 08:15:31;;;;;;;16.75;7.28;;;;;;;31.30;35.82;98337.09;4828390;29;20061;-64
2023/04/26 08:18:01;;;;;;;18.48;6.93;;;;;;;31.46;34.13;98322.47;4831648;29;20061;-66
2023/04/26 08:20:33;;;;;;;14.68;7.03;;;;;;;31.57;35.16;98317.34;4827254;29;20395;-64
2023/04/26 08:23:03;;;;;;;18.65;7.45;;;;;;;31.58;32.95;98322.50;4821736;29;20046;-63
2023/04/26 08:25:33;;;;;;;20.20;7.28;;;;;;;31.50;34.94;98309.69;4816929;29;20291;-62
2023/04/26 08:28:03;;;;;;;19.67;7.20;;;;;;;31.13;36.22;98310.69;4820551;29;20050;-63
2023/04/26 08:30:33;;;;;;;16.10;7.20;;;;;;;31.03;35.36;98308.38;4811261;29;20169;-62
2023/04/26 08:33:03;;;;;;;17.55;6.88;;;;;;;30.93;35.09;98303.31;4833951;29;20046;-64
2023/04/26 08:35:32;;;;;;;20.00;7.65;;;;;;;30.94;34.19;98302.94;4812920;29;20068;-64
2023/04/26 08:38:04;;;;;;;18.40;6.70;;;;;;;30.87;35.19;98294.50;4824120;29;20054;-68
2023/04/26 08:40:42;;;;;;;18.83;7.80;;;;;;;30.66;34.66;98296.44;4828559;29;20086;-67
2023/04/26 08:43:16;;;;;;;18.35;7.40;;;;;;;30.72;32.31;98284.16;4822101;29;20049;-64
2023/04/26 08:45:46;;;;;;;20.02;9.35;;;;;;;30.83;33.65;98281.81;4827688;29;20042;-62
2023/04/26 08:48:17;;;;;;;23.30;7.85;;;;;;;31.07;32.45;98274.53;4822585;29;20054;-63
2023/04/26 08:50:49;;;;;;;12.63;7.20;;;;;;;31.07;32.65;98274.53;4814168;29;20069;-65
2023/04/26 08:53:20;;;;;;;23.58;7.40;;;;;;;31.02;32.79;98274.78;4826440;29;20141;-70
2023/04/26 08:55:50;;;;;;;18.40;6.35;;;;;;;31.23;32.50;98268.44;4824056;29;20053;-65
2023/04/26 08:58:21;;;;;;;16.10;6.30;;;;;;;31.10;34.40;98265.69;4830778;29;20850;-60
2023/04/26 09:00:52;;;;;;;15.52;6.30;;;;;;;31.33;32.77;98265.28;4812096;29;20054;-60
2023/04/26 09:03:25;;;;;;;13.57;6.47;;;;;;;31.39;31.42;98251.03;4827816;29;20137;-61
2023/04/26 09:05:56;;;;;;;20.58;6.63;;;;;;;31.48;29.82;98259.13;4827194;29;20046;-59
2023/04/26 09:08:28;;;;;;;20.95;6.63;;;;;;;31.73;31.72;98249.84;4831353;29;20062;-58
2023/04/26 09:10:58;;;;;;;16.77;6.65;;;;;;;31.92;31.25;98254.72;4813767;29;20066;-62
2023/04/26 09:13:29;;;;;;;14.82;6.18;;;;;;;32.08;29.28;98245.50;4826715;29;20867;-61
2023/04/26 09:16:00;;;;;;;23.98;7.60;;;;;;;32.05;32.53;98242.63;4832752;29;20114;-63
2023/04/26 09:18:32;;;;;;;19.70;6.70;;;;;;;32.05;30.13;98237.13;4824338;29;20077;-63
2023/04/26 09:21:07;;;;;;;17.45;6.25;;;;;;;32.09;29.89;98235.34;4826944;29;20748;-62
2023/04/26 09:24:03;;;;;;;19.10;6.72;;;;;;;32.14;25.29;98228.81;4836804;29;20069;-61
2023/04/26 09:26:32;;;;;;;22.73;6.88;;;;;;;32.34;27.63;98223.19;4804306;29;20046;-63
2023/04/26 09:29:17;;;;;;;14.38;5.97;;;;;;;32.51;26.45;98216.63;4809279;29;20085;-65
2023/04/26 09:31:48;;;;;;;13.25;5.38;;;;;;;32.44;29.70;98205.47;4825656;29;20137;-64
2023/04/26 09:34:18;;;;;;;13.88;6.38;;;;;;;32.25;29.30;98203.34;4827114;29;20206;-61
2023/04/26 09:36:55;;;;;;;15.25;6.00;;;;;;;32.30;30.24;98202.31;4842246;29;20062;-62
2023/04/26 09:39:39;;;;;;;24.77;6.35;;;;;;;32.47;27.09;98202.81;4826662;29;20076;-62
2023/04/26 09:42:13;;;;;;;16.23;6.78;;;;;;;32.48;26.28;98198.16;4831872;29;20053;-64
2023/04/26 09:45:16;;;;;;;20.92;7.15;;;;;;;32.58;25.00;98192.13;4825343;29;20426;-66
2023/04/26 09:48:44;;;;;;;13.30;6.03;;;;;;;32.92;23.81;98175.09;4835001;29;20214;-69
2023/04/26 09:51:16;;;;;;;15.45;6.30;;;;;;;33.06;24.69;98171.91;4827354;29;20073;-65
2023/04/26 09:53:47;;;;;;;20.85;6.45;;;;;;;33.18;25.67;98169.13;4827608;29;20054;-69
2023/04/26 09:56:19;;;;;;;20.35;7.85;;;;;;;33.18;26.27;98168.34;4832897;29;20531;-69
2023/04/26 09:58:58;;;;;;;16.20;6.57;;;;;;;33.15;27.13;98158.06;4828489;29;20595;-65
2023/04/26 10:01:28;;;;;;;17.95;6.18;;;;;;;32.97;26.38;98152.09;4830333;29;20660;-60
2023/04/26 10:04:03;;;;;;;16.60;6.15;;;;;;;32.96;24.08;98143.06;4829921;29;20050;-62
2023/04/26 10:06:33;;;;;;;11.65;7.20;;;;;;;33.02;23.97;98138.09;4830332;29;20050;-67
2023/04/26 10:09:04;;;;;;;13.52;5.90;;;;;;;33.03;23.82;98141.63;4811753;29;20060;-64
2023/04/26 10:11:34;;;;;;;15.20;6.45;;;;;;;33.06;24.40;98135.47;4816092;29;20581;-60
2023/04/26 10:14:06;;;;;;;15.02;6.57;;;;;;;33.13;25.08;98127.41;4797908;29;20066;-64
2023/04/26 10:16:37;;;;;;;23.20;6.05;;;;;;;33.18;21.83;98122.47;4811925;29;20435;-68
2023/04/26 10:19:07;;;;;;;19.20;6.40;;;;;;;33.11;23.58;98126.94;4815013;29;20050;-64
2023/04/26 10:21:42;;;;;;;;;;;;;;;33.26;21.19;98116.00;4812662;29;20462;-64
2023/04/26 10:24:12;;;;;;;15.52;5.68;;;;;;;33.27;24.80;98112.09;4815125;29;19932;-59
2023/04/26 10:26:55;;;;;;;17.00;5.80;;;;;;;33.22;23.08;98106.09;4812618;29;20583;-65
2023/04/26 10:29:45;;;;;;;21.50;5.85;;;;;;;33.06;24.48;98106.03;4812901;29;20055;-66
2023/04/26 10:32:17;;;;;;;11.25;5.10;;;;;;;33.02;24.98;98091.44;4826239;29;20051;-60
2023/04/26 10:35:23;;;;;;;12.55;5.43;;;;;;;33.01;24.03;98100.03;4815598;29;20153;-66
2023/04/26 10:37:59;;;;;;;24.52;5.60;;;;;;;33.33;22.47;98096.13;4737670;30;20145;-64
2023/04/26 10:40:39;;;;;;;13.57;5.88;;;;;;;33.13;25.00;98089.75;4821042;29;20149;-67
2023/04/26 10:43:16;;;;;;;11.18;5.10;;;;;;;33.33;22.16;98091.44;4813602;29;20686;-63
2023/04/26 10:45:47;;;;;;;16.85;5.03;;;;;;;33.32;22.73;98087.13;4813159;29;20054;-66
2023/04/26 10:48:30;;;;;;;14.32;5.30;;;;;;;33.32;22.71;98086.34;4813745;29;20054;-67
2023/04/26 10:51:04;;;;;;;23.15;6.18;;;;;;;33.23;24.10;98080.22;4811001;29;20057;-64
2023/04/26 10:53:46;;;;;;;18.55;5.07;;;;;;;33.03;23.55;98073.03;4814873;29;20077;-65
2023/04/26 10:56:31;;;;;;;12.60;5.25;;;;;;;32.94;24.25;98075.94;4811432;29;20046;-70
2023/04/26 10:59:11;;;;;;;9.65;4.95;;;;;;;32.75;23.77;98065.69;4814687;29;20050;-69
2023/04/26 11:02:01;;;;;;;13.00;4.60;;;;;;;32.78;23.98;98067.75;4816185;29;20058;-66
2023/04/26 11:04:53;;;;;;;16.80;4.55;;;;;;;32.71;25.93;98055.78;4814035;29;20134;-65
2023/04/26 11:07:38;;;;;;;13.63;4.25;;;;;;;32.60;23.02;98051.94;4819956;29;20057;-64
2023/04/26 11:10:09;;;;;;;11.95;4.38;;;;;;;32.61;24.57;98051.59;4835807;29;20050;-69
2023/04/26 11:12:41;;;;;;;14.57;4.50;;;;;;;32.48;24.22;98047.34;4808793;29;20107;-65
2023/04/26 11:15:12;;;;;;;16.77;4.28;;;;;;;32.38;23.66;98047.84;4831345;29;20073;-67
2023/04/26 11:17:41;;;;;;;12.07;4.70;;;;;;;32.26;25.94;98050.66;4812545;29;20050;-68
2023/04/26 11:20:16;;;;;;;19.42;4.78;;;;;;;32.39;26.04;98046.69;4829634;29;20060;-68
2023/04/26 11:22:47;;;;;;;10.97;5.10;;;;;;;32.56;21.53;98037.34;4480891;29;10000765;-66
2023/04/26 11:25:17;;;;;;;10.43;4.68;;;;;;;32.58;22.55;98027.59;4807498;29;20069;-66
2023/04/26 11:27:47;;;;;;;10.43;4.95;;;;;;;32.45;23.47;98035.09;4813723;29;20054;-65
2023/04/26 11:30:18;;;;;;;22.38;4.93;;;;;;;32.43;23.01;98029.19;4814565;29;20057;-68
2023/04/26 11:32:48;;;;;;;18.05;5.35;;;;;;;32.39;22.85;98022.81;4827046;29;20052;-63
2023/04/26 11:35:20;;;;;;;10.85;4.32;;;;;;;32.47;22.02;98013.63;4813587;29;20046;-62
2023/04/26 11:37:53;;;;;;;11.90;4.65;;;;;;;32.43;24.09;98011.94;4834324;29;20050;-65
2023/04/26 11:40:23;;;;;;;;;;;;;;;32.46;23.05;98024.94;4834785;29;20823;-66
2023/04/26 11:42:52;;;;;;;13.45;4.38;;;;;;;32.43;24.14;98018.22;4830455;29;19924;-67
2023/04/26 11:45:22;;;;;;;13.52;4.45;;;;;;;32.61;20.76;98015.16;4829987;29;20064;-63
2023/04/26 11:47:52;;;;;;;12.77;4.32;;;;;;;32.59;21.09;98007.25;4829266;29;20546;-61
2023/04/26 11:50:25;;;;;;;13.05;4.13;;;;;;;32.64;21.19;98006.22;4832889;29;20060;-65
2023/04/26 11:52:56;;;;;;;11.10;4.35;;;;;;;32.59;21.89;98009.19;4830323;29;20679;-68
2023/04/26 11:55:33;;;;;;;11.55;4.32;;;;;;;32.56;21.57;98016.22;4833502;29;20057;-66
2023/04/26 11:58:13;;;;;;;12.82;3.95;;;;;;;32.49;24.71;98013.25;4836469;29;20718;-66
2023/04/26 12:01:03;;;;;;;15.55;4.10;;;;;;;32.29;23.89;98011.56;4832915;29;20102;-63
2023/04/26 12:03:36;;;;;;;16.30;5.00;;;;;;;32.34;24.67;98014.06;4823003;29;20508;-63